createdAt,value
2022-10-11T00:17:21.899Z,782
2022-10-11T00:37:21.929Z,782
2022-10-11T00:57:22.003Z,781
2022-10-11T01:17:22.041Z,781
2022-10-11T01:37:22.095Z,781
2022-10-11T01:57:22.196Z,781
2022-10-11T02:17:22.214Z,780
2022-10-11T02:37:22.276Z,785
2022-10-11T02:57:22.342Z,785
2022-10-11T03:17:35.917Z,784
2022-10-11T03:37:22.451Z,784
2022-10-11T03:57:22.510Z,785
2022-10-11T04:17:22.548Z,783
2022-10-11T04:37:22.610Z,782
2022-10-11T04:57:22.685Z,783
2022-10-11T05:57:22.865Z,786
2022-10-11T06:37:22.975Z,784
2022-10-11T06:57:23.019Z,787
2022-10-11T07:17:23.071Z,795
2022-10-11T07:37:23.151Z,795
2022-10-11T07:57:31.206Z,793
2022-10-11T08:17:23.262Z,794
2022-10-11T08:37:23.307Z,793
2022-10-11T09:17:23.418Z,782
2022-10-11T09:37:23.499Z,780
2022-10-11T09:57:23.550Z,778
2022-10-11T10:17:23.591Z,775
2022-10-11T10:37:23.645Z,772
2022-10-11T10:57:23.721Z,768
2022-10-11T11:17:23.742Z,764
2022-10-11T11:37:23.810Z,760
2022-10-11T11:57:23.843Z,764
2022-10-11T12:17:23.916Z,766
2022-10-11T12:57:31.983Z,761
2022-10-11T13:17:35.886Z,759
2022-10-11T13:37:24.094Z,758
2022-10-11T13:57:24.146Z,753
2022-10-11T14:17:32.224Z,751
2022-10-11T14:37:32.251Z,755
2022-10-11T14:57:24.278Z,755
2022-10-11T15:17:24.424Z,752
2022-10-11T15:37:24.375Z,752
2022-10-11T15:57:24.456Z,751
2022-10-11T16:17:24.490Z,751
2022-10-11T16:37:24.518Z,757
2022-10-11T16:57:24.597Z,765
2022-10-11T17:17:24.627Z,767
2022-10-11T17:37:24.697Z,771
2022-10-11T17:57:24.753Z,774
2022-10-11T18:17:24.808Z,773
2022-10-11T18:37:24.862Z,776
2022-10-11T18:57:24.905Z,782
2022-10-11T19:17:24.946Z,782
2022-10-11T19:37:25.028Z,780
2022-10-11T19:57:25.074Z,780
2022-10-11T20:17:25.123Z,781
2022-10-11T20:37:25.175Z,778
2022-10-11T20:57:25.248Z,781
2022-10-11T21:17:25.291Z,788
2022-10-11T21:37:25.352Z,786
2022-10-11T21:57:25.407Z,785
2022-10-11T22:17:25.461Z,784
2022-10-11T22:37:25.520Z,783
2022-10-11T22:57:25.589Z,781
2022-10-11T23:17:25.661Z,783
2022-10-11T23:37:25.717Z,787
2022-10-11T23:57:25.757Z,785
